createdAt,value
2019-06-26T00:00:57.455Z,15.38
2019-06-26T00:03:26.701Z,13.35
2019-06-26T00:05:55.951Z,15.95
2019-06-26T00:08:25.208Z,15.00
2019-06-26T00:10:54.451Z,14.65
2019-06-26T00:13:26.657Z,15.95
2019-06-26T00:15:55.169Z,15.50
2019-06-26T00:18:24.405Z,13.38
2019-06-26T00:20:53.647Z,13.98
2019-06-26T00:23:22.891Z,16.05
2019-06-26T00:25:52.139Z,15.50
2019-06-26T00:28:21.522Z,14.98
2019-06-26T00:30:50.749Z,16.25
2019-06-26T00:33:19.937Z,16.17
2019-06-26T00:35:49.106Z,14.73
2019-06-26T00:38:18.375Z,14.85
2019-06-26T00:40:47.635Z,15.65
2019-06-26T00:43:17.084Z,15.58
2019-06-26T00:45:46.327Z,15.13
2019-06-26T00:48:15.655Z,14.78
2019-06-26T00:50:44.922Z,15.18
2019-06-26T00:53:14.206Z,15.78
2019-06-26T00:55:43.452Z,17.57
2019-06-26T00:58:12.687Z,17.10
2019-06-26T01:00:46.335Z,16.40
2019-06-26T01:03:15.692Z,18.90
2019-06-26T01:05:44.933Z,15.75
2019-06-26T01:08:14.143Z,17.35
2019-06-26T01:10:43.384Z,16.67
2019-06-26T01:13:12.807Z,17.90
2019-06-26T01:15:42.551Z,19.10
2019-06-26T01:18:11.791Z,18.45
2019-06-26T01:20:41.058Z,17.42
2019-06-26T01:23:10.278Z,17.12
2019-06-26T01:25:39.533Z,19.05
2019-06-26T01:28:08.837Z,17.32
2019-06-26T01:30:38.075Z,18.67
2019-06-26T01:33:07.355Z,17.75
2019-06-26T01:35:36.585Z,19.05
2019-06-26T01:38:05.768Z,17.48
2019-06-26T01:40:35.035Z,20.48
2019-06-26T01:43:04.312Z,16.17
2019-06-26T01:45:33.510Z,16.97
2019-06-26T01:48:02.782Z,18.10
2019-06-26T01:50:32.030Z,16.30
2019-06-26T01:53:01.275Z,16.90
2019-06-26T01:55:30.515Z,18.12
2019-06-26T01:58:00.195Z,17.17
2019-06-26T02:00:31.235Z,19.82
2019-06-26T02:03:00.483Z,19.48
2019-06-26T02:05:29.763Z,16.73
2019-06-26T02:07:59.092Z,17.95
2019-06-26T02:10:28.407Z,17.80
2019-06-26T02:12:57.669Z,20.57
2019-06-26T02:15:27.203Z,18.57
2019-06-26T02:17:56.436Z,19.05
2019-06-26T02:20:25.749Z,18.17
2019-06-26T02:22:54.983Z,20.45
2019-06-26T02:25:24.331Z,17.80
2019-06-26T02:27:53.589Z,19.85
2019-06-26T02:30:22.906Z,18.73
2019-06-26T02:32:52.760Z,19.25
2019-06-26T02:35:21.987Z,21.48
2019-06-26T02:37:51.209Z,20.95
2019-06-26T02:40:20.485Z,18.02
2019-06-26T02:42:49.800Z,20.23
2019-06-26T02:45:19.478Z,18.73
2019-06-26T02:47:48.924Z,19.48
2019-06-26T02:50:18.206Z,18.17
2019-06-26T02:52:47.399Z,18.30
2019-06-26T02:55:16.723Z,18.23
2019-06-26T02:57:45.950Z,20.50
2019-06-26T03:00:15.736Z,18.25
2019-06-26T03:02:44.978Z,17.77
2019-06-26T03:05:14.322Z,19.82
2019-06-26T03:07:43.651Z,18.05
2019-06-26T03:10:12.969Z,18.90
2019-06-26T03:12:42.251Z,17.32
2019-06-26T03:15:11.590Z,17.17
2019-06-26T03:17:54.299Z,18.07
2019-06-26T03:20:11.980Z,20.90
2019-06-26T03:22:41.240Z,19.23
2019-06-26T03:25:10.471Z,20.57
2019-06-26T03:27:40.641Z,18.82
2019-06-26T03:30:09.938Z,20.02
2019-06-26T03:32:39.240Z,19.55
2019-06-26T03:35:08.803Z,17.90
2019-06-26T03:37:38.046Z,18.85
2019-06-26T03:40:08.906Z,20.88
2019-06-26T03:42:38.142Z,19.60
2019-06-26T03:45:21.253Z,17.90
2019-06-26T03:47:38.566Z,16.80
2019-06-26T03:50:08.497Z,18.87
2019-06-26T03:52:37.743Z,17.60
2019-06-26T03:55:07.228Z,16.52
2019-06-26T03:57:36.496Z,18.15
2019-06-26T04:00:06.681Z,18.10
2019-06-26T04:02:35.925Z,16.20
2019-06-26T04:05:05.495Z,16.93
2019-06-26T04:07:34.764Z,20.55
2019-06-26T04:10:04.737Z,17.10
2019-06-26T04:12:34.075Z,15.83
2019-06-26T04:15:03.411Z,20.12
2019-06-26T04:17:32.676Z,17.35
2019-06-26T04:20:01.910Z,15.68
2019-06-26T04:22:31.238Z,19.05
2019-06-26T04:25:00.485Z,17.02
2019-06-26T04:27:29.797Z,16.57
2019-06-26T04:29:59.071Z,16.15
2019-06-26T04:32:28.294Z,19.48
2019-06-26T04:34:58.051Z,20.50
2019-06-26T04:37:27.225Z,18.48
2019-06-26T04:39:56.601Z,17.23
2019-06-26T04:42:25.918Z,18.07
2019-06-26T04:44:55.254Z,22.45
2019-06-26T04:47:24.494Z,17.87
2019-06-26T04:49:53.741Z,18.02
2019-06-26T04:52:22.942Z,19.55
2019-06-26T04:54:52.169Z,19.20
2019-06-26T04:57:21.328Z,18.50
2019-06-26T04:59:50.615Z,24.85
2019-06-26T05:02:19.957Z,19.92
2019-06-26T05:04:49.164Z,19.87
2019-06-26T05:07:18.398Z,22.60
2019-06-26T05:09:47.634Z,21.15
2019-06-26T05:12:16.941Z,22.58
2019-06-26T05:14:46.182Z,21.57
2019-06-26T05:17:15.406Z,21.30
2019-06-26T05:19:45.049Z,21.73
2019-06-26T05:22:14.335Z,20.97
2019-06-26T05:24:46.437Z,21.17
2019-06-26T05:27:14.448Z,21.02
2019-06-26T05:29:43.693Z,20.50
2019-06-26T05:32:12.931Z,23.60
2019-06-26T05:34:42.254Z,21.00
2019-06-26T05:37:11.586Z,28.12
2019-06-26T05:39:40.799Z,33.53
2019-06-26T05:42:10.381Z,24.32
2019-06-26T05:44:39.618Z,22.80
2019-06-26T05:47:08.857Z,21.30
2019-06-26T05:49:38.119Z,19.37
2019-06-26T05:52:07.345Z,20.92
2019-06-26T05:54:36.569Z,19.67
2019-06-26T05:57:05.838Z,22.30
2019-06-26T05:59:35.082Z,23.15
2019-06-26T06:02:04.320Z,23.35
2019-06-26T06:04:33.561Z,24.50
2019-06-26T06:07:02.941Z,21.82
2019-06-26T06:09:32.362Z,22.13
2019-06-26T06:12:01.585Z,22.22
2019-06-26T06:14:30.841Z,23.22
2019-06-26T06:17:00.090Z,21.85
2019-06-26T06:19:29.340Z,24.37
2019-06-26T06:21:58.618Z,19.95
2019-06-26T06:24:27.912Z,20.62
2019-06-26T06:26:57.197Z,21.23
2019-06-26T06:29:26.362Z,20.97
2019-06-26T06:31:55.647Z,20.90
2019-06-26T06:34:24.892Z,21.17
2019-06-26T06:36:55.614Z,22.62
2019-06-26T06:39:24.859Z,21.82
2019-06-26T06:41:54.073Z,21.10
2019-06-26T06:44:23.318Z,18.65
2019-06-26T06:47:03.278Z,18.55
2019-06-26T06:49:23.473Z,23.07
2019-06-26T06:51:52.759Z,20.32
2019-06-26T06:54:21.996Z,20.50
2019-06-26T06:56:51.313Z,17.67
2019-06-26T06:59:20.497Z,16.05
2019-06-26T07:01:49.756Z,15.90
2019-06-26T07:04:19.032Z,14.85
2019-06-26T07:06:48.326Z,16.65
2019-06-26T07:09:17.843Z,15.08
2019-06-26T07:11:47.266Z,15.90
2019-06-26T07:14:16.584Z,16.27
2019-06-26T07:16:46.394Z,15.50
2019-06-26T07:19:16.961Z,16.12
2019-06-26T07:21:46.253Z,15.93
2019-06-26T07:24:16.118Z,14.30
2019-06-26T07:26:45.381Z,13.72
2019-06-26T07:29:14.721Z,13.55
2019-06-26T07:31:43.980Z,12.75
2019-06-26T07:34:13.679Z,15.03
2019-06-26T07:36:43.026Z,12.28
2019-06-26T07:39:12.289Z,13.98
2019-06-26T07:41:42.174Z,13.62
2019-06-26T07:44:11.545Z,12.85
2019-06-26T07:46:40.858Z,12.25
2019-06-26T07:49:10.141Z,14.43
2019-06-26T07:51:39.468Z,11.40
2019-06-26T07:54:08.818Z,12.37
2019-06-26T07:56:38.128Z,16.17
2019-06-26T07:59:07.420Z,14.18
2019-06-26T08:01:36.742Z,14.15
2019-06-26T08:04:06.696Z,13.08
2019-06-26T08:06:35.930Z,12.07
2019-06-26T08:09:06.677Z,12.82
2019-06-26T08:11:36.039Z,20.40
2019-06-26T08:14:05.408Z,16.55
2019-06-26T08:16:34.686Z,16.87
2019-06-26T08:19:03.938Z,17.48
2019-06-26T08:21:33.206Z,12.78
2019-06-26T08:24:02.559Z,12.88
2019-06-26T08:26:35.490Z,14.98
2019-06-26T08:29:04.764Z,13.00
2019-06-26T08:31:34.073Z,12.95
2019-06-26T08:34:03.243Z,13.35
2019-06-26T08:36:32.699Z,13.20
2019-06-26T08:39:01.982Z,13.22
2019-06-26T08:41:31.226Z,14.03
2019-06-26T08:44:00.549Z,14.10
2019-06-26T08:46:29.816Z,13.13
2019-06-26T08:48:59.156Z,13.38
2019-06-26T08:51:28.640Z,12.68
2019-06-26T08:53:57.938Z,12.82
2019-06-26T08:56:27.223Z,12.03
2019-06-26T08:58:56.488Z,14.38
2019-06-26T09:01:25.841Z,13.00
2019-06-26T09:03:56.520Z,16.02
2019-06-26T09:06:28.438Z,12.65
2019-06-26T09:08:57.856Z,13.43
2019-06-26T09:11:27.155Z,13.40
2019-06-26T09:13:56.578Z,12.68
2019-06-26T09:16:25.891Z,13.08
2019-06-26T09:18:55.287Z,15.00
2019-06-26T09:21:24.637Z,12.55
2019-06-26T09:23:54.252Z,15.78
2019-06-26T09:26:23.857Z,14.03
2019-06-26T09:28:53.126Z,14.23
2019-06-26T09:31:22.358Z,14.15
2019-06-26T09:33:51.606Z,13.62
2019-06-26T09:36:21.062Z,13.78
2019-06-26T09:38:50.406Z,13.20
2019-06-26T09:41:19.673Z,14.07
2019-06-26T09:43:48.941Z,12.00
2019-06-26T09:46:18.184Z,12.98
2019-06-26T09:48:52.793Z,15.25
2019-06-26T09:51:18.403Z,13.28
2019-06-26T09:53:48.103Z,12.78
2019-06-26T09:56:17.538Z,13.60
2019-06-26T09:58:46.769Z,14.50
2019-06-26T10:01:16.005Z,12.73
2019-06-26T10:03:45.513Z,12.55
2019-06-26T10:06:14.879Z,17.05
2019-06-26T10:08:44.194Z,12.40
2019-06-26T10:11:13.698Z,13.03
2019-06-26T10:13:42.997Z,13.60
2019-06-26T10:16:12.410Z,14.35
2019-06-26T10:18:41.691Z,12.75
2019-06-26T10:21:11.017Z,13.62
2019-06-26T10:23:40.394Z,11.93
2019-06-26T10:26:10.162Z,13.03
2019-06-26T10:28:39.423Z,13.28
2019-06-26T10:31:08.659Z,21.97
2019-06-26T10:33:37.946Z,17.15
2019-06-26T10:36:07.225Z,13.18
2019-06-26T10:38:36.559Z,12.15
2019-06-26T10:41:05.993Z,12.78
2019-06-26T10:43:35.301Z,14.93
2019-06-26T10:46:05.076Z,14.30
2019-06-26T10:48:34.311Z,14.53
2019-06-26T10:51:04.829Z,16.55
2019-06-26T10:53:34.084Z,15.18
2019-06-26T10:56:03.404Z,12.73
2019-06-26T10:58:32.983Z,12.43
2019-06-26T11:01:02.239Z,12.65
2019-06-26T11:03:31.892Z,13.72
2019-06-26T11:06:01.431Z,12.90
2019-06-26T11:08:30.763Z,13.25
2019-06-26T11:11:00.040Z,14.53
2019-06-26T11:13:29.280Z,13.53
2019-06-26T11:15:58.547Z,12.80
2019-06-26T11:18:27.791Z,14.87
2019-06-26T11:20:57.074Z,14.13
2019-06-26T11:23:26.413Z,21.73
2019-06-26T11:25:56.373Z,13.22
2019-06-26T11:28:25.736Z,15.70
2019-06-26T11:30:54.985Z,16.23
2019-06-26T11:33:24.246Z,18.98
2019-06-26T11:35:53.411Z,11.43
2019-06-26T11:38:22.763Z,10.90
2019-06-26T11:40:52.029Z,10.82
2019-06-26T11:43:21.199Z,10.75
2019-06-26T11:45:50.438Z,10.78
2019-06-26T11:48:19.676Z,11.50
2019-06-26T11:50:49.444Z,11.35
2019-06-26T11:53:18.811Z,13.50
2019-06-26T11:55:48.051Z,16.07
2019-06-26T11:58:17.285Z,19.80
2019-06-26T12:00:46.685Z,11.18
2019-06-26T12:03:16.103Z,11.40
2019-06-26T12:05:45.346Z,14.03
2019-06-26T12:08:18.173Z,13.08
2019-06-26T12:10:45.692Z,10.63
2019-06-26T12:13:14.969Z,11.55
2019-06-26T12:15:44.232Z,18.27
2019-06-26T12:18:13.679Z,12.95
2019-06-26T12:20:42.910Z,10.43
2019-06-26T12:23:12.162Z,11.70
2019-06-26T12:25:41.726Z,10.38
2019-06-26T12:28:11.021Z,9.80
2019-06-26T12:30:40.259Z,13.20
2019-06-26T12:33:09.555Z,12.73
2019-06-26T12:35:38.769Z,9.45
2019-06-26T12:38:08.098Z,9.78
2019-06-26T12:40:37.418Z,9.18
2019-06-26T12:43:06.674Z,12.80
2019-06-26T12:45:36.132Z,10.23
2019-06-26T12:48:05.450Z,10.20
2019-06-26T12:50:36.243Z,9.98
2019-06-26T12:53:05.492Z,10.50
2019-06-26T12:55:34.819Z,8.80
2019-06-26T12:58:13.063Z,17.12
2019-06-26T13:00:35.091Z,12.10
2019-06-26T13:03:05.505Z,9.78
2019-06-26T13:05:34.662Z,8.68
2019-06-26T13:08:03.999Z,9.08
2019-06-26T13:10:48.459Z,9.85
2019-06-26T13:13:04.392Z,8.98
2019-06-26T13:15:35.074Z,8.38
2019-06-26T13:18:04.641Z,9.48
2019-06-26T13:20:51.166Z,8.68
2019-06-26T13:23:05.028Z,9.93
2019-06-26T13:25:34.246Z,8.63
2019-06-26T13:28:03.496Z,8.58
2019-06-26T13:30:38.002Z,8.75
2019-06-26T13:33:07.245Z,10.55
2019-06-26T13:35:36.515Z,14.58
2019-06-26T13:38:05.794Z,12.15
2019-06-26T13:40:35.081Z,10.28
2019-06-26T13:43:04.375Z,10.43
2019-06-26T13:45:33.608Z,12.13
2019-06-26T13:48:02.948Z,9.93
2019-06-26T13:50:32.182Z,13.25
2019-06-26T13:53:02.317Z,10.48
2019-06-26T13:55:31.626Z,11.28
2019-06-26T13:58:00.979Z,9.80
2019-06-26T14:00:30.245Z,11.57
2019-06-26T14:02:59.458Z,13.28
2019-06-26T14:05:29.633Z,10.40
2019-06-26T14:07:59.047Z,13.28
2019-06-26T14:10:28.638Z,10.98
2019-06-26T14:12:57.938Z,8.55
2019-06-26T14:15:27.176Z,10.45
2019-06-26T14:17:56.408Z,7.78
2019-06-26T14:20:25.778Z,7.70
2019-06-26T14:22:55.054Z,7.00
2019-06-26T14:25:24.373Z,9.13
2019-06-26T14:27:53.666Z,10.90
2019-06-26T14:30:27.692Z,9.70
2019-06-26T14:32:55.037Z,8.95
2019-06-26T14:35:24.316Z,8.00
2019-06-26T14:37:53.902Z,7.65
2019-06-26T14:40:23.686Z,8.00
2019-06-26T14:42:53.092Z,9.08
2019-06-26T14:45:22.414Z,8.20
2019-06-26T14:47:51.751Z,7.53
2019-06-26T14:50:21.168Z,11.85
2019-06-26T14:52:50.560Z,7.90
2019-06-26T14:55:19.969Z,10.40
2019-06-26T14:57:49.362Z,9.00
2019-06-26T15:00:18.735Z,9.08
2019-06-26T15:02:48.139Z,9.00
2019-06-26T15:05:17.792Z,7.85
2019-06-26T15:07:49.973Z,10.03
2019-06-26T15:10:18.645Z,8.58
2019-06-26T15:12:47.991Z,8.53
2019-06-26T15:15:19.140Z,8.18
2019-06-26T15:17:48.364Z,11.90
2019-06-26T15:20:18.704Z,12.03
2019-06-26T15:22:48.478Z,8.33
2019-06-26T15:25:18.429Z,11.20
2019-06-26T15:27:47.843Z,10.45
2019-06-26T15:30:17.824Z,11.12
2019-06-26T15:32:47.060Z,8.70
2019-06-26T15:35:16.503Z,13.70
2019-06-26T15:37:45.764Z,15.35
2019-06-26T15:40:15.863Z,19.92
2019-06-26T15:42:48.774Z,32.30
2019-06-26T15:45:16.097Z,13.55
2019-06-26T15:47:45.926Z,12.00
2019-06-26T15:50:15.313Z,8.45
2019-06-26T15:52:44.572Z,19.23
2019-06-26T15:55:13.851Z,12.40
2019-06-26T15:57:43.092Z,9.90
2019-06-26T16:00:13.457Z,10.80
2019-06-26T16:02:42.803Z,11.43
2019-06-26T16:05:12.045Z,11.68
2019-06-26T16:07:41.396Z,13.30
2019-06-26T16:10:11.162Z,11.68
2019-06-26T16:12:40.398Z,10.23
2019-06-26T16:15:10.944Z,9.13
2019-06-26T16:18:05.454Z,10.40
2019-06-26T16:20:34.774Z,9.25
2019-06-26T16:23:04.042Z,14.25
2019-06-26T16:25:33.316Z,12.45
2019-06-26T16:28:05.668Z,11.00
2019-06-26T16:30:33.483Z,14.87
2019-06-26T16:33:02.896Z,7.62
2019-06-26T16:35:32.164Z,19.32
2019-06-26T16:38:01.411Z,16.77
2019-06-26T16:40:31.334Z,12.18
2019-06-26T16:43:00.831Z,15.58
2019-06-26T16:45:30.124Z,10.50
2019-06-26T16:47:59.357Z,8.15
2019-06-26T16:50:29.860Z,12.82
2019-06-26T16:52:59.170Z,14.30
2019-06-26T16:55:28.446Z,11.05
2019-06-26T16:57:57.759Z,10.23
2019-06-26T17:00:27.095Z,10.30
2019-06-26T17:02:56.702Z,7.83
2019-06-26T17:05:26.752Z,10.65
2019-06-26T17:07:56.020Z,8.80
2019-06-26T17:10:25.359Z,7.87
2019-06-26T17:12:54.963Z,13.40
2019-06-26T17:15:24.318Z,7.90
2019-06-26T17:17:53.649Z,9.40
2019-06-26T17:20:22.884Z,7.87
2019-06-26T17:23:05.299Z,9.10
2019-06-26T17:25:23.415Z,14.15
2019-06-26T17:27:52.736Z,10.50
2019-06-26T17:30:23.206Z,9.10
2019-06-26T17:32:52.498Z,11.15
2019-06-26T17:35:21.867Z,11.63
2019-06-26T17:37:51.130Z,11.50
2019-06-26T17:40:20.371Z,9.20
2019-06-26T17:42:49.609Z,9.38
2019-06-26T17:45:19.024Z,11.68
2019-06-26T17:47:48.355Z,20.12
2019-06-26T17:50:18.541Z,20.65
2019-06-26T17:52:47.841Z,15.45
2019-06-26T17:55:18.010Z,14.18
2019-06-26T17:57:47.745Z,12.45
2019-06-26T18:00:20.459Z,12.75
2019-06-26T18:02:49.708Z,13.40
2019-06-26T18:05:18.950Z,13.50
2019-06-26T18:07:48.215Z,18.65
2019-06-26T18:10:18.050Z,13.22
2019-06-26T18:12:47.390Z,15.28
2019-06-26T18:15:16.693Z,14.18
2019-06-26T18:17:45.989Z,16.57
2019-06-26T18:20:16.530Z,15.90
2019-06-26T18:22:46.882Z,10.93
2019-06-26T18:25:20.083Z,11.73
2019-06-26T18:27:49.575Z,12.35
2019-06-26T18:30:22.561Z,12.28
2019-06-26T18:32:50.536Z,19.85
2019-06-26T18:35:19.777Z,13.18
2019-06-26T18:37:49.097Z,15.50
2019-06-26T18:40:18.422Z,14.23
2019-06-26T18:42:47.703Z,15.23
2019-06-26T18:45:17.114Z,15.48
2019-06-26T18:47:46.426Z,13.10
2019-06-26T18:50:15.734Z,15.40
2019-06-26T18:52:44.967Z,15.43
2019-06-26T18:55:14.217Z,13.18
2019-06-26T18:57:43.492Z,14.20
2019-06-26T19:00:13.160Z,15.85
2019-06-26T19:02:42.412Z,15.15
2019-06-26T19:05:11.746Z,15.72
2019-06-26T19:07:40.983Z,15.32
2019-06-26T19:10:10.526Z,14.23
2019-06-26T19:12:40.249Z,14.83
2019-06-26T19:15:09.487Z,12.50
2019-06-26T19:17:42.222Z,15.30
2019-06-26T19:20:10.272Z,13.72
2019-06-26T19:22:39.491Z,17.80
2019-06-26T19:25:09.514Z,11.40
2019-06-26T19:27:38.769Z,16.73
2019-06-26T19:30:08.499Z,27.70
2019-06-26T19:32:37.829Z,22.98
2019-06-26T19:35:18.573Z,16.80
2019-06-26T19:37:38.567Z,17.00
2019-06-26T19:40:08.827Z,20.32
2019-06-26T19:42:38.479Z,19.40
2019-06-26T19:45:08.989Z,42.65
2019-06-26T19:47:38.275Z,32.13
2019-06-26T19:50:07.969Z,19.75
2019-06-26T19:52:37.237Z,18.52
2019-06-26T19:55:07.345Z,18.17
2019-06-26T19:57:36.650Z,18.25
2019-06-26T20:00:07.422Z,19.87
2019-06-26T20:02:37.020Z,15.88
2019-06-26T20:05:06.853Z,19.15
2019-06-26T20:07:36.181Z,18.87
2019-06-26T20:10:06.009Z,18.52
2019-06-26T20:12:35.421Z,17.17
2019-06-26T20:15:05.449Z,21.17
2019-06-26T20:17:34.783Z,16.27
2019-06-26T20:20:04.291Z,15.95
2019-06-26T20:22:34.000Z,16.62
2019-06-26T20:25:03.355Z,17.32
2019-06-26T20:27:32.634Z,15.75
2019-06-26T20:30:02.204Z,15.20
2019-06-26T20:32:31.471Z,16.62
2019-06-26T20:35:00.744Z,13.80
2019-06-26T20:37:30.646Z,14.73
2019-06-26T20:39:59.983Z,15.10
2019-06-26T20:42:29.227Z,15.48
2019-06-26T20:44:58.521Z,17.20
2019-06-26T20:47:27.873Z,13.88
2019-06-26T20:49:57.103Z,15.18
2019-06-26T20:52:26.424Z,14.23
2019-06-26T20:55:01.041Z,13.68
2019-06-26T20:57:26.826Z,15.93
2019-06-26T20:59:56.054Z,14.75
2019-06-26T21:02:25.421Z,11.25
2019-06-26T21:04:54.687Z,14.73
2019-06-26T21:07:24.001Z,12.30
2019-06-26T21:09:53.311Z,12.60
2019-06-26T21:12:22.628Z,12.82
2019-06-26T21:14:51.880Z,14.47
2019-06-26T21:17:21.068Z,12.33
2019-06-26T21:19:50.345Z,14.33
2019-06-26T21:22:19.610Z,14.53
2019-06-26T21:24:50.304Z,11.78
2019-06-26T21:27:20.047Z,10.32
2019-06-26T21:29:49.318Z,11.22
2019-06-26T21:32:18.657Z,12.20
2019-06-26T21:37:38.739Z,14.45
2019-06-26T21:40:08.113Z,14.18
2019-06-26T21:42:37.334Z,15.25
2019-06-26T21:45:06.881Z,14.85
2019-06-26T21:47:36.029Z,14.15
2019-06-26T21:50:05.305Z,12.73
2019-06-26T21:52:34.562Z,17.02
2019-06-26T21:55:03.938Z,12.23
2019-06-26T21:57:33.257Z,12.47
2019-06-26T22:00:02.592Z,14.90
2019-06-26T22:02:31.825Z,11.57
2019-06-26T22:05:01.086Z,15.90
2019-06-26T22:07:30.982Z,18.07
2019-06-26T22:10:00.219Z,13.40
2019-06-26T22:12:29.462Z,11.80
2019-06-26T22:14:58.713Z,14.58
2019-06-26T22:17:27.988Z,15.65
2019-06-26T22:19:57.229Z,15.10
2019-06-26T22:22:31.487Z,13.35
2019-06-26T22:25:00.727Z,15.15
2019-06-26T22:27:29.963Z,14.03
2019-06-26T22:29:59.243Z,14.75
2019-06-26T22:32:29.342Z,15.15
2019-06-26T22:34:58.582Z,12.30
2019-06-26T22:37:27.988Z,16.42
2019-06-26T22:39:57.243Z,16.40
2019-06-26T22:42:26.567Z,13.55
2019-06-26T22:44:55.852Z,14.83
2019-06-26T22:47:25.089Z,14.68
2019-06-26T22:49:54.336Z,12.55
2019-06-26T22:52:23.627Z,14.03
2019-06-26T22:54:53.567Z,11.97
2019-06-26T22:57:22.803Z,12.88
2019-06-26T22:59:52.085Z,13.93
2019-06-26T23:02:21.324Z,12.47
2019-06-26T23:04:50.568Z,13.28
2019-06-26T23:07:19.836Z,15.03
2019-06-26T23:09:49.068Z,13.70
2019-06-26T23:12:18.320Z,13.83
2019-06-26T23:14:47.595Z,12.90
2019-06-26T23:17:16.844Z,15.32
2019-06-26T23:19:46.094Z,14.15
2019-06-26T23:22:15.343Z,15.70
2019-06-26T23:24:44.773Z,13.98
2019-06-26T23:27:14.066Z,14.13
2019-06-26T23:29:43.333Z,12.85
2019-06-26T23:32:12.570Z,14.18
2019-06-26T23:34:41.831Z,14.18
2019-06-26T23:37:11.068Z,16.60
2019-06-26T23:39:40.329Z,15.05
2019-06-26T23:42:09.687Z,12.00
2019-06-26T23:44:38.929Z,16.77
2019-06-26T23:47:08.175Z,15.90
2019-06-26T23:49:37.423Z,17.95
2019-06-26T23:52:06.676Z,13.60
2019-06-26T23:54:35.942Z,12.30
2019-06-26T23:57:05.832Z,12.40
2019-06-26T23:59:35.060Z,14.87
